createdAt,value
2022-12-06T00:01:56.922Z,9.00
2022-12-06T00:06:58.733Z,8.70
2022-12-06T00:12:00.469Z,8.77
2022-12-06T00:17:02.158Z,8.68
2022-12-06T00:22:03.901Z,9.43
2022-12-06T00:27:05.610Z,8.30
2022-12-06T00:32:07.271Z,8.50
2022-12-06T00:37:08.949Z,9.23
2022-12-06T00:42:10.611Z,8.60
2022-12-06T00:47:12.344Z,9.02
2022-12-06T00:52:14.005Z,9.25
2022-12-06T00:57:15.679Z,8.80
2022-12-06T01:02:17.334Z,8.60
2022-12-06T01:07:19.041Z,8.90
2022-12-06T01:12:20.704Z,8.25
2022-12-06T01:17:22.391Z,8.18
2022-12-06T01:22:24.094Z,8.20
2022-12-06T01:27:26.364Z,8.77
2022-12-06T01:32:30.100Z,8.77
2022-12-06T01:37:31.759Z,9.00
2022-12-06T01:42:33.403Z,8.43
2022-12-06T01:47:39.173Z,8.13
2022-12-06T01:52:51.331Z,8.60
2022-12-06T01:57:56.681Z,9.13
2022-12-06T02:03:01.300Z,8.85
2022-12-06T02:08:04.554Z,8.48
2022-12-06T02:13:07.370Z,8.35
2022-12-06T02:18:18.115Z,8.45
2022-12-06T02:23:46.410Z,8.77
2022-12-06T02:29:16.019Z,8.10
2022-12-06T02:34:31.035Z,8.52
2022-12-06T02:39:47.923Z,8.75
2022-12-06T02:45:02.833Z,8.40
2022-12-06T02:50:10.559Z,8.57
2022-12-06T02:55:13.493Z,8.52
2022-12-06T03:00:29.148Z,8.52
2022-12-06T03:05:39.906Z,8.00
2022-12-06T03:10:47.606Z,7.88
2022-12-06T03:16:00.507Z,8.85
2022-12-06T03:21:11.027Z,9.23
2022-12-06T03:26:17.223Z,8.63
2022-12-06T03:31:22.808Z,9.00
2022-12-06T03:36:26.982Z,8.15
2022-12-06T03:41:40.172Z,8.57
2022-12-06T03:46:48.131Z,8.57
2022-12-06T03:51:49.937Z,9.25
2022-12-06T03:56:51.613Z,9.43
2022-12-06T04:01:53.349Z,8.75
2022-12-06T04:06:55.037Z,8.30
2022-12-06T04:11:56.691Z,8.30
2022-12-06T04:17:19.890Z,9.20
2022-12-06T04:22:40.015Z,9.23
2022-12-06T04:28:00.428Z,8.48
2022-12-06T04:33:20.934Z,8.20
2022-12-06T04:38:41.105Z,8.65
2022-12-06T04:43:42.819Z,9.18
2022-12-06T04:48:44.490Z,8.55
2022-12-06T04:53:46.207Z,9.32
2022-12-06T04:58:47.940Z,8.82
2022-12-06T05:03:49.806Z,9.32
2022-12-06T05:08:51.539Z,8.25
2022-12-06T05:13:53.244Z,8.75
2022-12-06T05:18:55.075Z,8.30
2022-12-06T05:23:57.336Z,9.50
2022-12-06T05:28:59.024Z,9.07
2022-12-06T05:34:00.677Z,8.77
2022-12-06T05:39:02.448Z,8.18
2022-12-06T05:44:04.137Z,8.65
2022-12-06T05:49:05.787Z,8.05
2022-12-06T05:54:07.538Z,7.63
2022-12-06T05:59:09.251Z,7.90
2022-12-06T06:04:11.005Z,8.45
2022-12-06T06:09:12.687Z,8.88
2022-12-06T06:14:14.844Z,8.25
2022-12-06T06:19:16.663Z,8.75
2022-12-06T06:24:18.331Z,8.60
2022-12-06T06:29:20.046Z,8.40
2022-12-06T06:34:21.726Z,8.35
2022-12-06T06:39:23.484Z,9.40
2022-12-06T06:44:25.264Z,8.80
2022-12-06T06:49:26.969Z,8.23
2022-12-06T06:54:31.166Z,8.35
2022-12-06T06:59:32.851Z,8.57
2022-12-06T07:04:34.564Z,8.35
2022-12-06T07:09:36.293Z,8.52
2022-12-06T07:14:38.116Z,8.48
2022-12-06T07:19:39.831Z,7.97
2022-12-06T07:24:44.480Z,7.68
2022-12-06T07:29:48.626Z,8.02
2022-12-06T07:34:50.375Z,7.32
2022-12-06T07:39:52.150Z,7.65
2022-12-06T07:45:03.392Z,7.70
2022-12-06T07:50:11.643Z,7.38
2022-12-06T07:55:18.654Z,7.53
2022-12-06T08:00:20.886Z,7.43
2022-12-06T08:05:22.629Z,8.07
2022-12-06T08:10:24.280Z,7.28
2022-12-06T08:15:25.965Z,7.13
2022-12-06T08:20:27.610Z,7.75
2022-12-06T08:25:29.304Z,7.55
2022-12-06T08:30:31.352Z,7.90
2022-12-06T08:35:36.636Z,8.32
2022-12-06T08:40:38.419Z,7.70
2022-12-06T08:45:40.158Z,8.27
2022-12-06T08:50:41.844Z,7.75
2022-12-06T08:55:58.696Z,8.25
2022-12-06T09:01:37.668Z,8.23
2022-12-06T09:06:42.091Z,7.95
2022-12-06T09:11:45.660Z,7.28
2022-12-06T09:16:47.447Z,7.50
2022-12-06T09:21:49.235Z,7.93
2022-12-06T09:26:50.889Z,7.45
2022-12-06T09:31:54.030Z,7.53
2022-12-06T09:37:02.185Z,7.75
2022-12-06T09:42:25.207Z,8.15
2022-12-06T09:47:45.361Z,8.60
2022-12-06T09:52:56.086Z,8.07
2022-12-06T09:58:03.355Z,8.02
2022-12-06T10:03:45.194Z,8.45
2022-12-06T10:08:55.575Z,8.40
2022-12-06T10:14:16.067Z,7.32
2022-12-06T10:19:32.897Z,7.68
2022-12-06T10:24:46.543Z,7.07
2022-12-06T10:29:54.393Z,7.57
2022-12-06T10:34:58.828Z,7.05
2022-12-06T10:40:26.450Z,7.70
2022-12-06T10:45:56.956Z,7.95
2022-12-06T10:51:13.351Z,9.70
2022-12-06T10:56:26.995Z,8.43
2022-12-06T11:01:34.263Z,7.93
2022-12-06T11:06:54.498Z,7.93
2022-12-06T11:11:57.009Z,8.15
2022-12-06T11:17:09.797Z,7.47
2022-12-06T11:22:32.080Z,7.10
2022-12-06T11:27:38.312Z,7.40
2022-12-06T11:32:41.101Z,6.95
2022-12-06T11:37:45.284Z,7.32
2022-12-06T11:42:47.033Z,6.60
2022-12-06T11:47:48.837Z,6.60
2022-12-06T11:53:03.867Z,6.20
2022-12-06T11:58:15.265Z,6.07
2022-12-06T12:03:28.603Z,6.38
2022-12-06T12:08:32.777Z,6.57
2022-12-06T12:13:44.108Z,6.43
2022-12-06T12:19:02.410Z,6.10
2022-12-06T12:24:05.920Z,6.00
2022-12-06T12:29:19.005Z,5.95
2022-12-06T12:34:29.409Z,6.28
2022-12-06T12:39:38.659Z,6.32
2022-12-06T12:44:45.840Z,6.03
2022-12-06T12:50:15.389Z,6.32
2022-12-06T12:55:27.908Z,6.28
2022-12-06T13:00:35.184Z,5.68
2022-12-06T13:05:44.871Z,5.60
2022-12-06T13:10:58.419Z,6.13
2022-12-06T13:16:05.911Z,5.18
2022-12-06T13:21:31.178Z,5.40
2022-12-06T13:26:37.232Z,5.95
2022-12-06T13:31:40.960Z,5.45
2022-12-06T13:36:42.842Z,5.45
2022-12-06T13:42:20.014Z,5.50
2022-12-06T13:47:27.598Z,5.55
2022-12-06T13:52:47.948Z,5.38
2022-12-06T13:57:55.584Z,5.35
2022-12-06T14:03:13.588Z,4.95
2022-12-06T14:08:15.479Z,5.72
2022-12-06T14:13:19.430Z,5.47
2022-12-06T14:18:27.538Z,4.90
2022-12-06T14:23:34.439Z,5.38
2022-12-06T14:28:38.012Z,5.05
2022-12-06T14:33:39.862Z,5.53
2022-12-06T14:38:41.547Z,5.30
2022-12-06T14:43:47.575Z,4.50
2022-12-06T14:49:07.924Z,4.57
2022-12-06T14:54:27.585Z,4.43
2022-12-06T15:04:52.066Z,4.45
2022-12-06T15:09:53.743Z,4.38
2022-12-06T15:14:55.449Z,4.00
2022-12-06T15:19:57.132Z,4.10
2022-12-06T15:25:00.200Z,4.60
2022-12-06T15:30:02.279Z,4.18
2022-12-06T15:35:05.601Z,4.22
2022-12-06T15:40:10.491Z,5.22
2022-12-06T15:45:15.756Z,5.20
2022-12-06T15:50:17.749Z,4.80
2022-12-06T15:55:19.775Z,5.70
2022-12-06T16:00:21.551Z,5.25
2022-12-06T16:05:23.224Z,4.57
2022-12-06T16:10:42.482Z,4.55
2022-12-06T16:15:47.288Z,5.30
2022-12-06T16:20:49.120Z,5.15
2022-12-06T16:25:50.865Z,5.00
2022-12-06T16:30:52.969Z,5.25
2022-12-06T16:35:58.946Z,5.57
2022-12-06T16:41:08.339Z,5.05
2022-12-06T16:46:19.888Z,5.20
2022-12-06T16:51:21.737Z,4.10
2022-12-06T16:56:23.427Z,5.18
2022-12-06T17:01:25.172Z,5.75
2022-12-06T17:06:29.317Z,5.25
2022-12-06T17:11:54.390Z,5.25
2022-12-06T17:16:56.989Z,4.65
2022-12-06T17:22:02.023Z,5.78
2022-12-06T17:27:03.891Z,4.78
2022-12-06T17:32:06.292Z,5.15
2022-12-06T17:37:08.211Z,6.20
2022-12-06T17:42:30.450Z,6.05
2022-12-06T17:47:32.202Z,6.40
2022-12-06T17:52:33.891Z,6.93
2022-12-06T17:57:35.580Z,6.43
2022-12-06T18:02:37.469Z,7.22
2022-12-06T18:07:39.322Z,6.13
2022-12-06T18:12:41.050Z,6.78
2022-12-06T18:17:42.707Z,7.22
2022-12-06T18:22:44.651Z,7.45
2022-12-06T18:27:46.422Z,6.72
2022-12-06T18:32:48.091Z,6.15
2022-12-06T18:37:49.742Z,6.68
2022-12-06T18:42:51.427Z,6.43
2022-12-06T18:47:53.467Z,6.10
2022-12-06T18:52:55.157Z,7.15
2022-12-06T18:57:56.974Z,7.13
2022-12-06T19:03:02.670Z,7.82
2022-12-06T19:08:05.088Z,7.45
2022-12-06T19:13:06.879Z,6.68
2022-12-06T19:18:12.983Z,7.55
2022-12-06T19:23:15.506Z,6.95
2022-12-06T19:28:17.232Z,6.30
2022-12-06T19:33:19.593Z,7.00
2022-12-06T19:38:21.263Z,6.45
2022-12-06T19:43:45.514Z,6.22
2022-12-06T19:48:50.586Z,6.20
2022-12-06T19:53:52.588Z,5.30
2022-12-06T19:58:56.459Z,5.40
2022-12-06T20:03:58.131Z,5.88
2022-12-06T20:09:02.061Z,5.25
2022-12-06T20:14:06.835Z,5.22
2022-12-06T20:19:09.922Z,6.07
2022-12-06T20:24:13.569Z,6.10
2022-12-06T20:29:16.032Z,5.60
2022-12-06T20:34:19.141Z,4.85
2022-12-06T20:39:24.170Z,4.70
2022-12-06T20:44:26.188Z,4.72
2022-12-06T20:49:27.878Z,5.28
2022-12-06T20:54:29.732Z,5.03
2022-12-06T20:59:31.382Z,5.63
2022-12-06T21:04:33.139Z,5.25
2022-12-06T21:09:35.156Z,5.68
2022-12-06T21:14:37.497Z,5.43
2022-12-06T21:19:39.857Z,5.22
2022-12-06T21:24:42.105Z,5.35
2022-12-06T21:29:44.287Z,5.65
2022-12-06T21:34:46.887Z,5.45
2022-12-06T21:39:49.482Z,5.45
2022-12-06T21:44:51.785Z,5.93
2022-12-06T21:49:53.805Z,5.95
2022-12-06T21:54:56.655Z,6.65
2022-12-06T21:59:58.658Z,6.80
2022-12-06T22:05:00.547Z,7.28
2022-12-06T22:10:02.497Z,7.10
2022-12-06T22:15:04.930Z,7.18
2022-12-06T22:20:07.443Z,6.88
2022-12-06T22:25:09.387Z,6.60
2022-12-06T22:30:11.448Z,6.63
2022-12-06T22:35:13.182Z,6.13
2022-12-06T22:40:15.016Z,6.15
2022-12-06T22:45:16.850Z,7.30
2022-12-06T22:50:18.545Z,6.47
2022-12-06T22:55:20.285Z,6.75
2022-12-06T23:00:22.203Z,7.10
2022-12-06T23:05:23.910Z,7.40
2022-12-06T23:10:25.696Z,7.53
2022-12-06T23:15:28.407Z,7.15
2022-12-06T23:20:30.089Z,7.55
2022-12-06T23:25:32.700Z,7.93
2022-12-06T23:30:34.771Z,7.45
2022-12-06T23:35:36.621Z,6.85
2022-12-06T23:40:38.505Z,7.15
2022-12-06T23:45:40.325Z,7.75
2022-12-06T23:50:42.034Z,7.25
2022-12-06T23:55:43.720Z,7.13
